Terminal Aerodrome Forecast
Issued by NWS

Home | Current Version | Previous Version | Graphics & Text | Print | Product List | Glossary On
Versions: 1 2 3 4 5 6 7 8 9 10 11 12 13 14 15 16 17
000
FTUS43 KBIS 251139
TAFMOT
TAF
KMOT 251139Z 2512/2612 01013G19KT P6SM OVC010
     FM251900 02016G24KT P6SM OVC020
     FM252300 02014KT P6SM BKN035
     FM260600 36009KT P6SM SCT040=

USA.gov is the U.S. government's official web portal to all federal, state and local government web resources and services.